Terminal Aerodrome Forecast
Issued by NWS Twin Cities, MN

Home | Current Version | Previous Version | Text Only | Print | Product List | Glossary On
Versions: 1 2 3 4 5 6 7 8 9 10 11 12 13 14 15 16 17 18 19 20 21 22 23 24 25 26 27 28 29
556
FTUS43 KMPX 250520
TAFMSP
TAF
KMSP 250520Z 2506/2612 28004KT P6SM SKC
     FM251500 30006KT P6SM SCT050 SCT200
     FM260200 23003KT P6SM SCT200=

USA.gov is the U.S. government's official web portal to all federal, state and local government web resources and services.